Time;durP1;ratioP1;P1;durP2;ratioP2;P2;SDS_P1;SDS_P2;PMS_P1;PMS_P2;Temp;Humidity;BMP_temperature;BMP_pressure;BME280_temperature;BME280_humidity;BME280_pressure;Samples;Min_cycle;Max_cycle;Signal;HPM_P1;HPM_P2
2021/04/14 00:01:53;;;;;;;1.45;1.10;;;;;;;18.85;49.92;103260.84;4928099;29;20028;-68
2021/04/14 00:04:19;;;;;;;1.80;1.20;;;;;;;18.80;49.97;103246.72;4926896;29;20094;-69
2021/04/14 00:06:46;;;;;;;2.00;1.30;;;;;;;18.84;50.06;103259.06;4901478;29;20028;-69
2021/04/14 00:09:12;;;;;;;1.67;1.15;;;;;;;18.82;49.83;103252.91;4917757;29;20111;-69
2021/04/14 00:11:38;;;;;;;1.98;1.27;;;;;;;18.81;49.79;103250.25;4924994;29;20107;-68
2021/04/14 00:14:07;;;;;;;4.05;1.58;;;;;;;18.81;49.76;103251.13;4923923;29;20039;-69
2021/04/14 00:16:33;;;;;;;1.92;1.17;;;;;;;18.80;49.74;103253.69;4937128;29;20039;-68
2021/04/14 00:18:58;;;;;;;2.13;1.40;;;;;;;18.75;49.71;103240.44;4906305;29;20035;-69
2021/04/14 00:21:25;;;;;;;1.88;0.98;;;;;;;18.81;49.62;103251.13;4944385;29;20031;-69
2021/04/14 00:23:51;;;;;;;1.70;1.08;;;;;;;18.75;49.81;103244.78;4922902;29;20064;-69
2021/04/14 00:26:17;;;;;;;2.35;1.20;;;;;;;18.78;49.65;103245.78;4924097;29;20032;-69
2021/04/14 00:28:43;;;;;;;1.90;1.10;;;;;;;18.79;49.59;103250.19;4901176;29;20119;-68
2021/04/14 00:31:09;;;;;;;3.22;1.15;;;;;;;18.79;49.80;103238.81;4914531;29;20039;-69
2021/04/14 00:33:35;;;;;;;1.88;1.20;;;;;;;18.76;49.73;103243.94;4933470;29;20479;-68
2021/04/14 00:36:01;;;;;;;2.13;1.30;;;;;;;18.75;49.73;103243.06;4918877;29;20090;-68
2021/04/14 00:38:26;;;;;;;2.13;0.95;;;;;;;18.74;49.74;103237.75;4930201;29;20052;-68
2021/04/14 00:41:14;;;;;;;1.30;1.00;;;;;;;18.69;49.74;103229.78;4929019;29;20040;-68
2021/04/14 00:43:40;;;;;;;1.25;1.00;;;;;;;18.76;49.81;103242.22;4927416;29;20034;-69
2021/04/14 00:46:06;;;;;;;1.95;1.55;;;;;;;18.76;49.67;103236.09;4928309;29;20028;-68
2021/04/14 00:48:32;;;;;;;1.30;0.95;;;;;;;18.74;49.67;103229.91;4943063;29;20031;-68
2021/04/14 00:51:00;;;;;;;2.97;1.27;;;;;;;18.74;49.67;103235.13;4925758;29;20082;-69
2021/04/14 00:53:25;;;;;;;1.50;1.15;;;;;;;18.72;49.65;103227.22;4939628;29;20537;-69
2021/04/14 00:55:51;;;;;;;1.38;1.10;;;;;;;18.73;49.58;103231.63;4907139;29;20044;-68
2021/04/14 00:58:16;;;;;;;2.25;1.50;;;;;;;18.69;49.54;103227.16;4933382;29;20132;-70
2021/04/14 01:00:47;;;;;;;1.83;1.25;;;;;;;18.72;49.52;103223.72;4934339;29;20027;-68
2021/04/14 01:03:25;;;;;;;1.40;0.90;;;;;;;18.71;49.62;103225.44;4927783;29;20115;-68
2021/04/14 01:05:53;;;;;;;1.85;1.45;;;;;;;18.71;49.40;103224.53;4924952;29;20032;-68
2021/04/14 01:08:19;;;;;;;2.10;1.05;;;;;;;18.71;49.60;103228.06;4923874;29;20031;-68
2021/04/14 01:10:45;;;;;;;1.55;1.00;;;;;;;18.62;49.55;103204.19;4933332;29;20032;-68
2021/04/14 01:13:11;;;;;;;1.65;1.00;;;;;;;18.64;49.56;103210.38;4943328;29;20482;-68
2021/04/14 01:15:42;;;;;;;1.60;1.00;;;;;;;18.67;49.42;103215.72;4910535;29;20131;-68
2021/04/14 01:18:17;;;;;;;1.52;1.27;;;;;;;18.68;49.32;103222.75;4892063;29;20106;-68
2021/04/14 01:20:42;;;;;;;2.25;1.38;;;;;;;18.63;49.61;103219.06;4899706;29;20035;-68
2021/04/14 01:23:08;;;;;;;1.58;1.17;;;;;;;18.66;49.55;103220.91;4918389;29;20028;-68
2021/04/14 01:25:38;;;;;;;2.92;1.00;;;;;;;18.68;49.53;103228.00;4892682;29;21880;-68
2021/04/14 01:28:11;;;;;;;1.65;1.02;;;;;;;18.68;49.42;103228.00;4909350;29;20080;-68
2021/04/14 01:30:36;;;;;;;1.50;1.20;;;;;;;18.66;49.50;103221.81;4909985;29;20035;-68
2021/04/14 01:33:02;;;;;;;2.53;1.30;;;;;;;18.66;49.45;103232.28;4915759;29;20277;-68
2021/04/14 01:35:29;;;;;;;1.58;1.10;;;;;;;18.64;49.35;103219.97;4917175;29;20043;-68
2021/04/14 01:37:55;;;;;;;2.58;1.45;;;;;;;18.59;49.52;103214.56;4904293;29;20032;-68
2021/04/14 01:40:23;;;;;;;1.50;1.10;;;;;;;18.66;49.50;103227.03;4893542;29;20032;-68
2021/04/14 01:42:49;;;;;;;1.98;1.10;;;;;;;18.65;49.49;103237.47;4905331;29;20033;-69
2021/04/14 01:45:18;;;;;;;1.90;1.20;;;;;;;18.66;49.35;103226.16;4895320;29;20028;-69
2021/04/14 01:47:43;;;;;;;1.48;0.98;;;;;;;18.64;49.37;103231.34;4912423;29;20502;-68
2021/04/14 01:50:08;;;;;;;1.23;0.90;;;;;;;18.64;49.39;103226.09;4900883;29;20112;-68
2021/04/14 01:52:34;;;;;;;1.70;1.20;;;;;;;18.61;49.48;103228.63;4901438;29;20067;-68
2021/04/14 01:55:00;;;;;;;2.00;1.30;;;;;;;18.55;49.35;103213.56;4884523;29;20032;-68
2021/04/14 01:57:26;;;;;;;1.63;1.10;;;;;;;18.63;49.31;103233.91;4913719;29;20028;-68
2021/04/14 01:59:52;;;;;;;1.80;1.10;;;;;;;18.61;49.29;103231.22;4904719;29;20036;-69
2021/04/14 02:02:17;;;;;;;2.08;1.63;;;;;;;18.57;49.21;103218.81;4907368;29;20036;-68
2021/04/14 02:04:45;;;;;;;1.60;1.20;;;;;;;18.60;49.42;103234.69;4891798;29;20504;-69
2021/04/14 02:07:11;;;;;;;1.70;1.20;;;;;;;18.61;49.32;103230.34;4912703;29;20036;-68
2021/04/14 02:09:36;;;;;;;2.10;1.40;;;;;;;18.60;49.29;103233.81;4893951;29;20121;-68
2021/04/14 02:12:03;;;;;;;1.40;1.10;;;;;;;18.60;49.20;103237.31;4900046;29;20063;-68
2021/04/14 02:14:28;;;;;;;2.03;1.30;;;;;;;18.60;49.22;103239.94;4911304;29;20052;-68
2021/04/14 02:16:54;;;;;;;1.92;1.35;;;;;;;18.58;49.34;103236.38;4898461;29;20495;-68
2021/04/14 02:19:19;;;;;;;2.20;1.13;;;;;;;18.57;49.31;103230.19;4912416;29;20097;-68
2021/04/14 02:21:44;;;;;;;1.55;1.13;;;;;;;18.52;49.24;103220.44;4899651;29;20044;-67
2021/04/14 02:24:10;;;;;;;2.05;1.30;;;;;;;18.57;49.33;103237.16;4895166;29;20040;-68
2021/04/14 02:26:35;;;;;;;2.95;1.33;;;;;;;18.54;49.23;103229.22;4899344;29;20123;-68
2021/04/14 02:29:01;;;;;;;2.63;1.40;;;;;;;18.57;49.22;103230.19;4911958;29;20032;-68
2021/04/14 02:31:31;;;;;;;1.70;1.20;;;;;;;18.58;49.25;103231.13;4907391;29;20036;-68
2021/04/14 02:34:02;;;;;;;1.95;1.45;;;;;;;18.57;49.20;103224.97;4908904;29;20024;-68
2021/04/14 02:36:29;;;;;;;1.60;1.30;;;;;;;18.50;49.28;103223.00;4901677;29;20475;-69
2021/04/14 02:38:54;;;;;;;2.20;1.42;;;;;;;18.52;49.13;103221.31;4900958;29;20058;-68
2021/04/14 02:41:19;;;;;;;1.23;1.05;;;;;;;18.51;49.35;103219.53;4902604;29;20479;-74
2021/04/14 02:43:47;;;;;;;1.50;1.20;;;;;;;18.47;49.23;103207.16;4898981;29;20068;-74
2021/04/14 02:46:12;;;;;;;2.55;1.30;;;;;;;18.54;49.22;103217.03;4909558;29;20032;-74
2021/04/14 02:48:37;;;;;;;2.17;1.20;;;;;;;18.53;49.23;103222.22;4885338;29;20398;-74
2021/04/14 02:51:04;;;;;;;1.40;1.00;;;;;;;18.49;49.25;103215.09;4917241;29;20055;-74
2021/04/14 02:53:29;;;;;;;4.18;1.45;;;;;;;18.49;49.03;103217.69;4909084;29;20024;-75
2021/04/14 02:55:54;;;;;;;1.88;1.35;;;;;;;18.51;49.16;103223.88;4907246;29;20059;-75
2021/04/14 02:58:20;;;;;;;2.00;1.20;;;;;;;18.52;49.16;103230.91;4892339;29;20510;-75
2021/04/14 03:00:45;;;;;;;1.90;1.20;;;;;;;18.48;49.20;103219.44;4912759;29;20032;-74
2021/04/14 03:03:11;;;;;;;1.75;1.08;;;;;;;18.46;49.20;103221.09;4905536;29;20369;-74
2021/04/14 03:05:36;;;;;;;2.00;1.40;;;;;;;18.50;48.95;103222.09;4901130;29;20038;-74
2021/04/14 03:08:02;;;;;;;1.75;1.27;;;;;;;18.48;49.17;103229.03;4912316;29;20032;-75
2021/04/14 03:10:29;;;;;;;1.85;1.35;;;;;;;18.50;49.13;103224.72;4905632;29;20369;-74
2021/04/14 03:12:55;;;;;;;1.90;1.20;;;;;;;18.49;49.18;103223.84;4916226;29;20385;-74
2021/04/14 03:15:24;;;;;;;2.08;1.58;;;;;;;18.49;49.09;103222.94;4893939;29;20128;-74
2021/04/14 03:17:50;;;;;;;1.90;1.13;;;;;;;18.46;49.08;103217.59;4916216;29;20024;-74
2021/04/14 03:20:17;;;;;;;1.98;1.30;;;;;;;18.48;49.12;103223.78;4900281;29;20035;-74
2021/04/14 03:22:43;;;;;;;2.38;1.42;;;;;;;18.48;49.03;103222.06;4907520;29;20032;-74
2021/04/14 03:25:09;;;;;;;1.88;1.38;;;;;;;18.48;49.27;103223.78;4917230;29;20071;-74
2021/04/14 03:27:35;;;;;;;2.35;1.80;;;;;;;18.44;48.90;103212.31;4916065;29;20071;-74
2021/04/14 03:30:00;;;;;;;2.40;1.73;;;;;;;18.48;49.29;103218.53;4915919;29;20059;-74
2021/04/14 03:32:25;;;;;;;1.45;1.15;;;;;;;18.44;49.16;103217.53;4917192;29;20450;-75
2021/04/14 03:34:51;;;;;;;1.70;1.40;;;;;;;18.44;49.20;103217.53;4916011;29;20036;-75
2021/04/14 03:37:16;;;;;;;2.72;1.83;;;;;;;18.43;49.04;103209.66;4912753;29;20028;-74
2021/04/14 03:39:41;;;;;;;3.25;1.95;;;;;;;18.43;49.20;103214.91;4899904;29;20024;-75
2021/04/14 03:42:07;;;;;;;1.88;1.67;;;;;;;18.44;49.08;103219.28;4915337;29;20119;-74
2021/04/14 03:44:36;;;;;;;1.73;1.58;;;;;;;18.44;49.16;103216.66;4915743;29;20356;-74
2021/04/14 03:47:03;;;;;;;1.60;1.30;;;;;;;18.45;49.21;103224.56;4915965;29;20028;-74
2021/04/14 03:49:30;;;;;;;2.83;1.77;;;;;;;18.46;49.15;103222.84;4916720;29;20478;-74
2021/04/14 03:51:55;;;;;;;2.40;2.00;;;;;;;18.45;49.13;103223.66;4915974;29;20051;-74
2021/04/14 03:54:21;;;;;;;1.88;1.50;;;;;;;18.33;49.13;103202.31;4899780;29;20475;-74
2021/04/14 03:56:46;;;;;;;2.13;1.25;;;;;;;18.38;49.14;103212.13;4916769;29;20494;-74
2021/04/14 03:59:12;;;;;;;2.83;1.67;;;;;;;18.43;49.12;103214.91;4912600;29;20125;-74
2021/04/14 04:01:38;;;;;;;2.60;1.63;;;;;;;18.39;49.00;103219.13;4924134;29;20376;-74
2021/04/14 04:04:03;;;;;;;1.92;1.30;;;;;;;18.38;49.09;103212.13;4913824;29;20091;-74
2021/04/14 04:06:29;;;;;;;2.42;1.77;;;;;;;18.39;49.20;103215.63;4905874;29;20107;-74
2021/04/14 04:08:54;;;;;;;2.80;1.63;;;;;;;18.40;49.02;103215.69;4916286;29;20087;-75
2021/04/14 04:11:23;;;;;;;2.95;2.00;;;;;;;18.42;48.92;103218.34;4912370;29;20084;-75
2021/04/14 04:13:50;;;;;;;2.85;1.67;;;;;;;18.41;48.98;103220.09;4914423;29;20044;-74
2021/04/14 04:16:16;;;;;;;2.20;1.45;;;;;;;18.41;49.03;103222.72;4929168;29;20399;-74
2021/04/14 04:18:41;;;;;;;2.83;1.85;;;;;;;18.42;48.91;103223.59;4916323;29;20024;-74
2021/04/14 04:21:08;;;;;;;2.20;1.67;;;;;;;18.38;48.96;103212.13;4899118;29;20064;-75
2021/04/14 04:23:34;;;;;;;2.55;1.77;;;;;;;18.40;48.55;103215.69;4919885;29;20034;-74
2021/04/14 04:25:59;;;;;;;2.15;1.63;;;;;;;18.41;49.16;103219.19;4918198;29;20039;-75
2021/04/14 04:28:25;;;;;;;2.22;1.60;;;;;;;18.36;49.04;103208.56;4930695;29;20082;-75
2021/04/14 04:30:51;;;;;;;2.70;1.92;;;;;;;18.40;49.11;103220.03;4910793;29;20114;-75
2021/04/14 04:33:17;;;;;;;2.03;1.52;;;;;;;18.39;49.10;103223.50;4938518;29;20039;-75
2021/04/14 04:35:43;;;;;;;7.55;2.25;;;;;;;18.37;49.25;103217.31;4940384;29;20053;-77
2021/04/14 04:38:08;;;;;;;3.33;1.70;;;;;;;18.39;49.29;103224.38;4920073;29;20463;-74
2021/04/14 04:40:34;;;;;;;1.90;1.58;;;;;;;18.44;49.35;103225.41;4905762;29;20016;-74
2021/04/14 04:42:59;;;;;;;3.58;2.00;;;;;;;18.52;49.15;103217.81;4939038;29;20374;-75
2021/04/14 04:45:29;;;;;;;3.78;2.20;;;;;;;18.46;49.09;103192.28;4907439;29;20043;-76
2021/04/14 04:47:55;;;;;;;3.85;1.92;;;;;;;18.51;48.88;103210.78;4922550;29;20031;-76
2021/04/14 04:50:26;;;;;;;2.30;1.80;;;;;;;18.65;49.04;103229.59;4912358;29;20028;-76
2021/04/14 04:53:00;;;;;;;1.80;1.60;;;;;;;18.75;49.28;103229.94;4906706;29;20060;-76
2021/04/14 04:55:26;;;;;;;3.30;1.85;;;;;;;18.79;48.82;103231.84;4920602;29;20390;-73
2021/04/14 04:57:52;;;;;;;2.03;1.83;;;;;;;18.76;49.00;103225.59;4908723;29;20027;-77
2021/04/14 05:00:19;;;;;;;5.35;1.55;;;;;;;18.74;48.88;103211.53;4919516;29;20082;-77
2021/04/14 05:02:45;;;;;;;2.75;1.50;;;;;;;18.81;48.84;103218.78;4934742;29;20031;-75
2021/04/14 05:05:18;;;;;;;2.38;1.38;;;;;;;18.90;49.01;103232.16;4922830;29;20032;-75
2021/04/14 05:07:43;;;;;;;2.90;1.57;;;;;;;18.93;49.00;103229.66;4932201;29;20494;-75
2021/04/14 05:10:10;;;;;;;2.30;1.45;;;;;;;18.94;48.86;103241.03;4930314;29;20036;-75
2021/04/14 05:12:36;;;;;;;2.33;1.95;;;;;;;18.96;48.95;103234.97;4935838;29;20087;-76
2021/04/14 05:15:01;;;;;;;5.22;2.22;;;;;;;18.89;48.97;103233.91;4901430;29;20092;-75
2021/04/14 05:17:26;;;;;;;5.28;2.28;;;;;;;18.92;49.15;103244.50;4930722;29;20028;-73
2021/04/14 05:19:52;;;;;;;2.00;1.42;;;;;;;18.96;49.00;103244.56;4932399;29;20466;-73
2021/04/14 05:22:17;;;;;;;2.15;1.92;;;;;;;18.96;49.05;103244.56;4921259;29;20043;-72
2021/04/14 05:24:43;;;;;;;7.78;1.88;;;;;;;18.95;49.34;103251.56;4888930;29;20051;-73
2021/04/14 05:27:08;;;;;;;3.20;1.92;;;;;;;18.89;49.42;103243.50;4904825;29;20050;-76
2021/04/14 05:29:34;;;;;;;4.85;2.17;;;;;;;18.95;49.41;103254.19;4923389;29;20035;-74
2021/04/14 05:31:59;;;;;;;4.22;2.22;;;;;;;18.91;49.37;103239.19;4918470;29;20059;-73
2021/04/14 05:34:25;;;;;;;3.63;2.08;;;;;;;18.99;49.55;103245.56;4922926;29;20047;-75
2021/04/14 05:36:52;;;;;;;6.07;2.00;;;;;;;19.01;49.53;103258.72;4921415;29;20043;-76
2021/04/14 05:39:19;;;;;;;6.80;2.38;;;;;;;19.05;49.43;103252.72;4903820;29;20423;-76
2021/04/14 05:41:44;;;;;;;4.07;1.80;;;;;;;19.05;49.53;103255.34;4921112;29;20111;-76
2021/04/14 05:44:09;;;;;;;5.05;2.13;;;;;;;19.04;49.52;103259.72;4920609;29;20367;-75
2021/04/14 05:46:35;;;;;;;4.47;2.60;;;;;;;19.04;49.56;103256.19;4919520;29;20448;-75
2021/04/14 05:49:00;;;;;;;3.90;1.98;;;;;;;19.06;49.44;103251.91;4926956;29;20036;-76
2021/04/14 05:51:30;;;;;;;3.60;2.05;;;;;;;19.08;49.46;103258.09;4887250;29;20031;-75
2021/04/14 05:53:55;;;;;;;3.25;1.90;;;;;;;19.06;49.53;103258.03;4924242;29;20035;-75
2021/04/14 05:56:22;;;;;;;2.72;1.80;;;;;;;19.15;49.44;103266.16;4929670;29;20439;-75
2021/04/14 05:58:48;;;;;;;5.00;2.47;;;;;;;19.18;49.38;103268.91;4915847;29;20035;-75
2021/04/14 06:01:18;;;;;;;3.33;2.03;;;;;;;19.18;49.54;103273.25;4911748;29;20054;-75
2021/04/14 06:03:47;;;;;;;3.05;1.75;;;;;;;19.15;49.48;103273.16;4921369;29;20452;-76
2021/04/14 06:06:12;;;;;;;2.35;1.40;;;;;;;19.22;49.45;103281.25;4932211;29;20134;-75
2021/04/14 06:08:38;;;;;;;4.90;2.33;;;;;;;19.24;49.62;103286.53;4902930;29;20534;-75
2021/04/14 06:11:03;;;;;;;3.75;1.92;;;;;;;19.25;49.56;103283.06;4916041;29;20043;-76
2021/04/14 06:13:30;;;;;;;3.28;2.00;;;;;;;19.28;49.28;103284.06;4921682;29;20124;-75
2021/04/14 06:15:56;;;;;;;2.45;1.42;;;;;;;19.31;48.99;103280.66;4904572;29;20060;-74
2021/04/14 06:18:21;;;;;;;2.30;1.58;;;;;;;19.34;49.20;103292.97;4902247;29;20024;-74
2021/04/14 06:20:47;;;;;;;3.28;1.60;;;;;;;19.28;49.35;103294.56;4898764;29;20040;-75
2021/04/14 06:23:17;;;;;;;3.85;2.22;;;;;;;19.33;49.47;103289.47;4898737;29;19928;-74
2021/04/14 06:28:25;;;;;;;2.58;1.35;;;;;;;19.42;49.05;103300.22;4904276;29;20364;-75
2021/04/14 06:30:50;;;;;;;3.15;1.42;;;;;;;19.43;49.08;103288.00;4900110;29;20479;-74
2021/04/14 06:33:18;;;;;;;3.47;2.22;;;;;;;19.51;49.00;103297.91;4897689;29;20040;-74
2021/04/14 06:35:45;;;;;;;4.27;1.97;;;;;;;19.41;49.03;103276.56;4894780;29;20446;-74
2021/04/14 06:38:12;;;;;;;4.35;1.92;;;;;;;19.47;49.23;103287.25;4904989;29;20040;-75
2021/04/14 06:43:18;;;;;;;2.63;1.65;;;;;;;19.49;49.08;103296.97;4900424;29;20496;-74
2021/04/14 06:45:44;;;;;;;2.88;1.40;;;;;;;19.38;49.11;103276.47;4902376;29;20111;-75
2021/04/14 06:48:24;;;;;;;3.08;1.20;;;;;;;19.48;49.34;103289.00;4901390;29;20506;-74
2021/04/14 06:51:29;;;;;;;2.47;1.67;;;;;;;19.54;49.05;103291.84;4888052;29;20096;-75
2021/04/14 06:54:21;;;;;;;1.58;1.10;;;;;;;19.53;49.04;103288.34;4901676;29;20411;-74
2021/04/14 06:56:54;;;;;;;8.95;1.40;;;;;;;19.63;48.79;103287.75;4905062;29;20123;-75
2021/04/14 06:59:22;;;;;;;2.20;1.20;;;;;;;19.68;49.16;103287.00;4903631;29;20036;-69
2021/04/14 07:01:55;;;;;;;3.22;1.42;;;;;;;19.61;48.75;103292.06;4900406;29;20028;-69
2021/04/14 07:04:32;;;;;;;1.93;1.27;;;;;;;19.65;49.19;103294.78;4909435;29;20032;-69
2021/04/14 07:07:01;;;;;;;4.22;1.10;;;;;;;19.74;49.08;103293.31;4909568;29;20024;-69
2021/04/14 07:09:39;;;;;;;2.47;0.98;;;;;;;19.79;48.70;103289.09;4911231;29;20068;-69
2021/04/14 07:12:08;;;;;;;2.53;0.88;;;;;;;19.84;48.93;103286.59;4905657;29;20031;-69
2021/04/14 07:14:34;;;;;;;1.98;1.42;;;;;;;19.91;48.89;103292.06;4909565;29;20048;-69
2021/04/14 07:17:15;;;;;;;1.73;1.30;;;;;;;19.99;49.03;103297.53;4895011;29;20095;-70
2021/04/14 07:20:24;;;;;;;2.08;1.05;;;;;;;19.97;48.77;103286.09;4903797;29;20076;-70
2021/04/14 07:22:57;;;;;;;3.58;1.20;;;;;;;19.99;48.49;103290.53;4900262;29;20033;-70
2021/04/14 07:25:44;;;;;;;4.23;1.40;;;;;;;19.91;47.04;103291.16;4903068;29;20083;-66
2021/04/14 07:28:31;;;;;;;4.60;1.65;;;;;;;19.88;47.36;103291.06;4886160;29;20064;-68
2021/04/14 07:31:12;;;;;;;2.58;1.20;;;;;;;19.88;47.80;103288.44;4900443;29;20087;-69
2021/04/14 07:34:14;;;;;;;3.97;1.20;;;;;;;19.85;47.96;103283.13;4910993;29;20023;-69
2021/04/14 07:36:54;;;;;;;5.43;1.50;;;;;;;19.87;48.20;103290.19;4911184;29;20032;-69
2021/04/14 07:39:44;;;;;;;2.95;1.25;;;;;;;19.86;47.92;103288.41;4895733;29;20025;-69
2021/04/14 07:42:24;;;;;;;3.33;0.95;;;;;;;19.72;48.11;103284.53;4912308;29;20028;-69
2021/04/14 07:45:23;;;;;;;2.80;1.25;;;;;;;19.69;47.90;103289.69;4903370;29;20120;-70
2021/04/14 07:47:51;;;;;;;1.98;1.25;;;;;;;19.61;48.40;103292.06;4879726;29;20476;-69
2021/04/14 07:50:19;;;;;;;1.80;0.75;;;;;;;19.52;48.37;103285.66;4906408;29;20473;-69
2021/04/14 07:52:45;;;;;;;3.70;1.30;;;;;;;19.61;48.13;103283.31;4916607;29;20083;-69
2021/04/14 07:55:25;;;;;;;2.03;1.25;;;;;;;19.69;48.42;103292.31;4899427;29;20040;-69
2021/04/14 07:57:51;;;;;;;1.58;1.00;;;;;;;19.71;47.93;103289.72;4898133;29;20033;-69
2021/04/14 08:00:38;;;;;;;1.52;0.90;;;;;;;19.74;48.02;103293.31;4904609;29;20059;-69
2021/04/14 08:03:23;;;;;;;1.50;1.10;;;;;;;19.73;48.07;103286.31;4909685;29;20043;-69
2021/04/14 08:05:48;;;;;;;1.40;0.80;;;;;;;19.72;48.10;103284.53;4910896;29;20043;-69
2021/04/14 08:08:30;;;;;;;2.92;1.20;;;;;;;19.61;48.34;103289.44;4892553;29;20028;-70
2021/04/14 08:11:03;;;;;;;1.65;0.95;;;;;;;19.52;48.21;103278.69;4890670;29;20455;-69
2021/04/14 08:13:39;;;;;;;1.88;1.00;;;;;;;19.56;48.33;103291.06;4897004;29;20044;-69
2021/04/14 08:16:17;;;;;;;1.40;1.00;;;;;;;19.53;48.38;103288.34;4918492;29;20048;-69
2021/04/14 08:18:53;;;;;;;1.42;0.90;;;;;;;19.51;48.63;103291.75;4917923;29;20028;-69
2021/04/14 08:21:31;;;;;;;1.55;0.88;;;;;;;19.48;48.42;103287.28;4931231;29;20040;-69
2021/04/14 08:24:03;;;;;;;2.15;1.48;;;;;;;19.46;48.37;103285.47;4906456;29;20032;-69
2021/04/14 08:26:30;;;;;;;1.30;0.90;;;;;;;19.48;48.48;103295.13;4920130;29;20066;-69
2021/04/14 08:29:13;;;;;;;1.65;0.80;;;;;;;19.39;48.42;103294.88;4924815;29;20032;-69
2021/04/14 08:31:46;;;;;;;;;;;;;;;19.42;48.62;103294.97;4926148;29;20039;-69
2021/04/14 08:34:31;;;;;;;2.15;1.13;;;;;;;19.41;48.47;103301.06;4912164;29;19922;-69
2021/04/14 08:37:00;;;;;;;2.22;1.13;;;;;;;19.37;48.52;103299.19;4913844;29;20114;-69
2021/04/14 08:39:47;;;;;;;2.47;0.85;;;;;;;19.32;48.25;103303.41;4931063;29;20471;-69
2021/04/14 08:42:26;;;;;;;1.25;0.90;;;;;;;19.33;48.53;103310.44;4916642;29;20024;-69
2021/04/14 08:44:54;;;;;;;1.52;0.90;;;;;;;19.32;48.42;103305.16;4920450;29;20039;-77
2021/04/14 08:47:31;;;;;;;3.40;0.93;;;;;;;19.30;48.75;103299.84;4915164;29;20051;-77
2021/04/14 08:50:04;;;;;;;1.65;1.02;;;;;;;19.27;48.37;103305.00;4932812;29;20491;-77
2021/04/14 08:52:31;;;;;;;2.38;1.33;;;;;;;19.27;48.44;103305.00;4923675;29;20040;-77
2021/04/14 08:54:59;;;;;;;0.73;0.70;;;;;;;19.24;48.48;103299.66;4907633;29;20044;-77
2021/04/14 08:57:25;;;;;;;1.80;1.02;;;;;;;19.21;48.51;103294.34;4922213;29;20035;-76
2021/04/14 08:59:50;;;;;;;1.27;0.75;;;;;;;19.24;48.57;103299.66;4915824;29;20055;-69
2021/04/14 09:02:19;;;;;;;3.47;0.90;;;;;;;19.21;48.52;103296.97;4905059;29;20032;-69
2021/04/14 09:04:47;;;;;;;1.95;1.05;;;;;;;19.20;48.43;103308.28;4920773;29;20019;-69
2021/04/14 09:07:17;;;;;;;1.42;0.93;;;;;;;19.17;48.29;103297.69;4920795;29;20035;-69
2021/04/14 09:09:47;;;;;;;1.20;0.70;;;;;;;19.16;48.29;103304.69;4928903;29;20042;-69
2021/04/14 09:12:13;;;;;;;1.15;0.70;;;;;;;19.16;48.58;103309.03;4921496;29;20024;-69
2021/04/14 09:14:38;;;;;;;1.75;1.05;;;;;;;19.09;48.53;103305.31;4920510;29;20518;-69
2021/04/14 09:17:19;;;;;;;2.00;1.38;;;;;;;19.09;48.38;103305.31;4928237;29;20047;-69
2021/04/14 09:19:47;;;;;;;0.82;0.57;;;;;;;19.11;48.58;103316.75;4925416;29;20024;-71
2021/04/14 09:22:12;;;;;;;1.42;0.82;;;;;;;19.14;48.71;103310.72;4926283;29;20032;-69
2021/04/14 09:24:48;;;;;;;1.50;0.90;;;;;;;19.10;48.52;103308.81;4921152;29;20020;-70
2021/04/14 09:27:38;;;;;;;1.05;0.73;;;;;;;19.12;48.55;103315.91;4924684;29;20355;-70
2021/04/14 09:30:15;;;;;;;1.60;0.77;;;;;;;19.11;48.72;103315.84;4923777;29;20036;-69
2021/04/14 09:32:46;;;;;;;1.15;0.95;;;;;;;19.13;48.69;103314.16;4925879;29;20477;-69
2021/04/14 09:35:21;;;;;;;0.85;0.70;;;;;;;19.22;48.58;103311.81;4932159;29;20036;-75
2021/04/14 09:37:51;;;;;;;2.42;1.00;;;;;;;19.24;48.56;103313.66;4932941;29;20549;-75
2021/04/14 09:40:46;;;;;;;1.35;0.90;;;;;;;19.27;48.56;103323.38;4920524;29;20051;-75
2021/04/14 09:43:45;;;;;;;0.75;0.60;;;;;;;19.36;48.42;103323.63;4909766;29;20047;-75
2021/04/14 09:46:26;;;;;;;1.70;0.63;;;;;;;19.33;48.18;103315.69;4915368;29;20047;-75
2021/04/14 09:48:51;;;;;;;1.70;0.85;;;;;;;19.35;48.31;103319.22;4923028;29;20032;-75
2021/04/14 09:51:31;;;;;;;1.42;1.00;;;;;;;19.41;48.20;103327.31;4919999;29;20039;-75
2021/04/14 09:54:00;;;;;;;0.90;0.70;;;;;;;19.45;48.07;103316.06;4922644;29;20031;-75
2021/04/14 09:56:31;;;;;;;1.60;0.80;;;;;;;19.47;48.33;103314.38;4916387;29;20047;-75
2021/04/14 09:59:19;;;;;;;0.77;0.50;;;;;;;19.44;48.12;103311.66;4927761;29;20075;-75
2021/04/14 10:01:48;;;;;;;0.47;0.47;;;;;;;19.53;47.69;103311.97;4922229;29;20554;-75
2021/04/14 10:04:18;;;;;;;0.82;0.65;;;;;;;19.53;48.05;103304.09;4921205;29;20439;-75
2021/04/14 10:06:46;;;;;;;1.08;0.85;;;;;;;19.49;47.99;103298.69;4928459;29;20530;-75
2021/04/14 10:09:24;;;;;;;3.88;1.65;;;;;;;19.50;47.97;103304.00;4908365;29;20360;-75
2021/04/14 10:11:49;;;;;;;1.00;0.65;;;;;;;19.58;47.84;103305.13;4918540;29;20028;-75
2021/04/14 10:14:15;;;;;;;1.67;0.80;;;;;;;19.65;47.82;103307.91;4906016;29;20043;-75
2021/04/14 10:16:41;;;;;;;1.65;0.80;;;;;;;19.68;47.64;103308.00;4925108;29;20128;-75
2021/04/14 10:19:12;;;;;;;1.40;0.95;;;;;;;19.75;47.21;103308.22;4933304;29;20079;-75
2021/04/14 10:21:42;;;;;;;2.10;0.73;;;;;;;19.79;47.48;103304.84;4928730;29;20443;-75
2021/04/14 10:24:12;;;;;;;1.45;0.80;;;;;;;19.75;47.54;103300.34;4915867;29;20039;-75
2021/04/14 10:26:47;;;;;;;0.73;0.73;;;;;;;19.79;47.41;103299.59;4922408;29;20395;-75
2021/04/14 10:29:13;;;;;;;1.35;0.68;;;;;;;19.88;47.49;103296.31;4933060;29;20369;-75
2021/04/14 10:31:39;;;;;;;0.80;0.70;;;;;;;19.82;47.44;103293.56;4932630;29;20035;-75
2021/04/14 10:34:21;;;;;;;1.35;0.50;;;;;;;19.71;47.73;103281.84;4906800;29;20490;-75
2021/04/14 10:36:47;;;;;;;1.70;0.70;;;;;;;19.67;47.74;103291.38;4949594;29;20039;-75
2021/04/14 10:39:20;;;;;;;0.88;0.60;;;;;;;19.62;47.55;103287.72;4934719;29;20032;-75
2021/04/14 10:41:46;;;;;;;;;;;;;;;19.58;47.81;103285.88;4922323;29;20028;-75
2021/04/14 10:44:18;;;;;;;0.80;0.65;;;;;;;19.54;47.87;103295.38;4923147;29;20297;-75
2021/04/14 10:46:45;;;;;;;0.50;0.47;;;;;;;19.49;48.01;103283.84;4923513;29;20032;-72
2021/04/14 10:49:22;;;;;;;0.70;0.50;;;;;;;19.44;48.13;103277.56;4916937;29;20091;-75
2021/04/14 10:51:51;;;;;;;0.80;0.63;;;;;;;19.50;47.84;103285.63;4920078;29;20020;-77
2021/04/14 10:54:18;;;;;;;1.63;0.70;;;;;;;19.47;48.06;103293.41;4918838;29;20059;-76
2021/04/14 10:56:44;;;;;;;1.33;0.52;;;;;;;19.45;47.93;103281.97;4933769;29;20479;-76
2021/04/14 10:59:16;;;;;;;0.68;0.52;;;;;;;19.45;47.88;103292.44;4907002;29;20471;-76
2021/04/14 11:01:46;;;;;;;1.38;0.75;;;;;;;19.44;48.04;103288.03;4914542;29;20494;-77
2021/04/14 11:04:14;;;;;;;0.90;0.60;;;;;;;19.44;47.98;103292.41;4923601;29;20031;-76
2021/04/14 11:06:42;;;;;;;1.25;0.70;;;;;;;19.44;47.93;103282.78;4924427;29;20519;-76
2021/04/14 11:09:09;;;;;;;0.85;0.60;;;;;;;19.43;47.70;103285.38;4917049;29;20483;-77
2021/04/14 11:11:36;;;;;;;0.60;0.60;;;;;;;19.46;47.72;103275.88;4928754;29;20039;-76
2021/04/14 11:14:04;;;;;;;1.00;0.65;;;;;;;19.41;47.87;103268.69;4905112;29;20431;-76
2021/04/14 11:16:31;;;;;;;1.00;0.60;;;;;;;19.42;47.88;103280.97;4918810;29;20044;-76
2021/04/14 11:18:57;;;;;;;1.05;0.60;;;;;;;19.38;47.85;103285.22;4916553;29;20028;-69
2021/04/14 11:21:30;;;;;;;1.35;0.60;;;;;;;19.40;47.76;103286.16;4928523;29;20035;-69
2021/04/14 11:24:13;;;;;;;2.70;0.70;;;;;;;19.39;47.79;103283.50;4926547;29;20118;-69
2021/04/14 11:27:04;;;;;;;1.50;0.70;;;;;;;19.34;48.00;103275.50;4901828;29;20028;-69
2021/04/14 11:29:33;;;;;;;0.73;0.60;;;;;;;19.37;47.98;103282.53;4918298;29;20028;-69
2021/04/14 11:32:03;;;;;;;1.40;0.80;;;;;;;19.37;48.06;103285.16;4925392;29;20035;-69
2021/04/14 11:34:34;;;;;;;1.23;1.08;;;;;;;19.32;48.27;103282.44;4917961;29;20043;-69
2021/04/14 11:37:04;;;;;;;0.77;0.60;;;;;;;19.33;47.96;103286.84;4916851;29;19926;-69
2021/04/14 11:39:53;;;;;;;0.90;0.57;;;;;;;19.31;48.32;103280.66;4932868;29;20434;-69
2021/04/14 11:42:22;;;;;;;0.85;0.50;;;;;;;19.31;47.87;103285.00;4916002;29;20024;-69
2021/04/14 11:44:54;;;;;;;1.00;0.50;;;;;;;19.30;48.10;103288.47;4919951;29;20107;-69